createdAt,value
2018-07-12T00:00:34.551Z,98576.00
2018-07-12T00:03:01.874Z,98569.00
2018-07-12T00:05:29.131Z,98573.00
2018-07-12T00:07:56.298Z,98574.00
2018-07-12T00:10:23.490Z,98576.00
2018-07-12T00:12:50.990Z,98577.00
2018-07-12T00:15:18.230Z,98569.00
2018-07-12T00:17:45.490Z,98571.00
2018-07-12T00:20:12.909Z,98575.00
2018-07-12T00:22:40.270Z,98565.00
2018-07-12T00:25:07.509Z,98574.00
2018-07-12T00:27:34.829Z,98569.00
2018-07-12T00:30:02.069Z,98575.00
2018-07-12T00:32:29.349Z,98573.00
2018-07-12T00:34:56.591Z,98574.00
2018-07-12T00:37:24.250Z,98572.00
2018-07-12T00:39:51.890Z,98571.00
2018-07-12T00:42:19.811Z,98577.00
2018-07-12T00:44:47.090Z,98570.00
2018-07-12T00:47:14.472Z,98565.00
2018-07-12T00:49:41.731Z,98567.00
2018-07-12T00:52:09.011Z,98573.00
2018-07-12T00:54:36.591Z,98571.00
2018-07-12T00:57:03.892Z,98572.00
2018-07-12T00:59:31.095Z,98569.00
2018-07-12T01:01:58.451Z,98570.00
2018-07-12T01:04:25.671Z,98575.00
2018-07-12T01:07:55.552Z,98573.00
2018-07-12T01:10:22.811Z,98577.00
2018-07-12T01:12:50.152Z,98568.00
2018-07-12T01:15:17.431Z,98570.00
2018-07-12T01:17:44.692Z,98577.00
2018-07-12T01:20:11.932Z,98575.00
2018-07-12T01:22:39.592Z,98565.00
2018-07-12T01:25:06.832Z,98571.00
2018-07-12T01:27:34.212Z,98569.00
2018-07-12T01:30:01.457Z,98569.00
2018-07-12T01:32:28.693Z,98566.00
2018-07-12T01:34:56.271Z,98571.00
2018-07-12T01:37:23.472Z,98567.00
2018-07-12T01:39:50.845Z,98570.00
2018-07-12T01:42:18.171Z,98568.00
2018-07-12T01:44:45.451Z,98576.00
2018-07-12T01:47:13.171Z,98571.00
2018-07-12T01:49:40.430Z,98570.00
2018-07-12T01:52:07.751Z,98568.00
2018-07-12T01:54:34.951Z,98575.00
2018-07-12T01:57:02.233Z,98569.00
2018-07-12T01:59:29.731Z,98576.00
2018-07-12T02:01:56.991Z,98573.00
2018-07-12T02:04:24.650Z,98580.00
2018-07-12T02:06:51.891Z,98584.00
2018-07-12T02:09:19.094Z,98577.00
2018-07-12T02:11:46.893Z,98573.00
2018-07-12T02:14:14.192Z,98577.00
2018-07-12T02:16:41.771Z,98580.00
2018-07-12T02:19:08.971Z,98576.00
2018-07-12T02:21:36.471Z,98582.00
2018-07-12T02:24:03.691Z,98584.00
2018-07-12T02:26:30.910Z,98588.00
2018-07-12T02:28:58.131Z,98586.00
2018-07-12T02:31:25.431Z,98584.00
2018-07-12T02:33:52.951Z,98588.00
2018-07-12T02:36:20.191Z,98589.00
2018-07-12T02:38:47.352Z,98585.00
2018-07-12T02:41:14.570Z,98584.00
2018-07-12T02:43:41.751Z,98584.00
2018-07-12T02:46:08.932Z,98581.00
2018-07-12T02:48:36.291Z,98579.00
2018-07-12T02:51:03.573Z,98585.00
2018-07-12T02:53:30.792Z,98584.00
2018-07-12T02:55:58.073Z,98580.00
2018-07-12T02:58:25.309Z,98577.00
2018-07-12T03:00:52.616Z,98577.00
2018-07-12T03:03:19.811Z,98583.00
2018-07-12T03:05:47.251Z,98587.00
2018-07-12T03:08:14.431Z,98584.00
2018-07-12T03:10:41.711Z,98581.00
2018-07-12T03:13:09.191Z,98577.00
2018-07-12T03:15:36.451Z,98591.00
2018-07-12T03:18:03.951Z,98580.00
2018-07-12T03:20:31.211Z,98585.00
2018-07-12T03:22:58.475Z,98584.00
2018-07-12T03:25:25.816Z,98581.00
2018-07-12T03:27:53.053Z,98583.00
2018-07-12T03:30:20.292Z,98579.00
2018-07-12T03:32:47.472Z,98570.00
2018-07-12T03:35:14.751Z,98567.00
2018-07-12T03:37:41.972Z,98570.00
2018-07-12T03:40:09.272Z,98570.00
2018-07-12T03:42:36.772Z,98562.00
2018-07-12T03:45:04.072Z,98568.00
2018-07-12T03:47:31.332Z,98563.00
2018-07-12T03:49:58.692Z,98566.00
2018-07-12T03:52:25.912Z,98574.00
2018-07-12T03:54:53.152Z,98567.00
2018-07-12T03:57:20.391Z,98575.00
2018-07-12T03:59:48.171Z,98580.00
2018-07-12T04:02:15.373Z,98580.00
2018-07-12T04:04:42.651Z,98573.00
2018-07-12T04:07:09.835Z,98581.00
2018-07-12T04:09:37.051Z,98582.00
2018-07-12T04:12:04.872Z,98582.00
2018-07-12T04:14:32.211Z,98584.00
2018-07-12T04:16:59.451Z,98585.00
2018-07-12T04:19:26.751Z,98592.00
2018-07-12T04:21:54.012Z,98591.00
2018-07-12T04:24:21.531Z,98589.00
2018-07-12T04:26:48.791Z,98597.00
2018-07-12T04:29:15.991Z,98592.00
2018-07-12T04:31:43.194Z,98597.00
2018-07-12T04:34:10.471Z,98591.00
2018-07-12T04:36:44.572Z,98590.00
2018-07-12T04:39:11.852Z,98585.00
2018-07-12T04:41:39.052Z,98583.00
2018-07-12T04:44:06.251Z,98582.00
2018-07-12T04:46:34.072Z,98584.00
2018-07-12T04:49:01.212Z,98585.00
2018-07-12T04:51:28.471Z,98587.00
2018-07-12T04:53:55.754Z,98584.00
2018-07-12T04:56:22.971Z,98586.00
2018-07-12T04:58:50.591Z,98583.00
2018-07-12T05:01:17.811Z,98584.00
2018-07-12T05:03:45.091Z,98583.00
2018-07-12T05:06:13.031Z,98587.00
2018-07-12T05:08:40.311Z,98598.00
2018-07-12T05:11:07.971Z,98596.00
2018-07-12T05:13:35.192Z,98593.00
2018-07-12T05:16:02.473Z,98593.00
2018-07-12T05:18:29.731Z,98597.00
2018-07-12T05:20:57.152Z,98599.00
2018-07-12T05:23:24.411Z,98603.00
2018-07-12T05:25:51.636Z,98603.00
2018-07-12T05:28:19.031Z,98611.00
2018-07-12T05:30:46.584Z,98618.00
2018-07-12T05:33:13.831Z,98613.00
2018-07-12T05:35:43.711Z,98615.00
2018-07-12T05:38:13.831Z,98613.00
2018-07-12T05:40:43.791Z,98616.00
2018-07-12T05:43:13.431Z,98621.00
2018-07-12T05:45:42.911Z,98611.00
2018-07-12T05:48:12.531Z,98624.00
2018-07-12T05:50:47.091Z,98626.00
2018-07-12T05:53:18.411Z,98626.00
2018-07-12T05:55:47.995Z,98630.00
2018-07-12T05:58:17.711Z,98629.00
2018-07-12T06:00:46.915Z,98629.00
2018-07-12T06:03:16.594Z,98626.00
2018-07-12T06:05:46.251Z,98627.00
2018-07-12T06:08:16.251Z,98632.00
2018-07-12T06:10:46.271Z,98632.00
2018-07-12T06:13:16.570Z,98632.00
2018-07-12T06:15:46.748Z,98634.00
2018-07-12T06:18:16.310Z,98631.00
2018-07-12T06:20:45.987Z,98634.00
2018-07-12T06:23:15.502Z,98640.00
2018-07-12T06:25:48.028Z,98635.00
2018-07-12T06:28:17.807Z,98635.00
2018-07-12T06:30:47.467Z,98642.00
2018-07-12T06:33:17.327Z,98649.00
2018-07-12T06:35:47.227Z,98650.00
2018-07-12T06:38:16.886Z,98655.00
2018-07-12T06:40:46.946Z,98648.00
2018-07-12T06:43:16.551Z,98638.00
2018-07-12T06:45:46.289Z,98643.00
2018-07-12T06:48:16.147Z,98641.00
2018-07-12T06:50:46.206Z,98647.00
2018-07-12T06:53:15.826Z,98644.00
2018-07-12T06:55:45.287Z,98638.00
2018-07-12T06:58:15.266Z,98639.00
2018-07-12T07:00:45.357Z,98631.00
2018-07-12T07:03:15.126Z,98623.00
2018-07-12T07:05:44.830Z,98627.00
2018-07-12T07:08:14.966Z,98622.00
2018-07-12T07:10:44.587Z,98628.00
2018-07-12T07:13:14.468Z,98640.00
2018-07-12T07:15:44.307Z,98633.00
2018-07-12T07:18:14.126Z,98634.00
2018-07-12T07:20:44.487Z,98636.00
2018-07-12T07:23:14.506Z,98636.00
2018-07-12T07:25:44.468Z,98637.00
2018-07-12T07:28:15.486Z,98630.00
2018-07-12T07:30:45.167Z,98628.00
2018-07-12T07:33:14.867Z,98637.00
2018-07-12T07:35:44.710Z,98628.00
2018-07-12T07:38:14.307Z,98627.00
2018-07-12T07:40:44.047Z,98629.00
2018-07-12T07:43:13.747Z,98620.00
2018-07-12T07:45:43.947Z,98623.00
2018-07-12T07:48:13.586Z,98629.00
2018-07-12T07:50:43.566Z,98623.00
2018-07-12T07:53:13.167Z,98614.00
2018-07-12T07:55:42.847Z,98608.00
2018-07-12T07:58:12.427Z,98613.00
2018-07-12T08:00:42.327Z,98622.00
2018-07-12T08:03:11.967Z,98615.00
2018-07-12T08:05:41.907Z,98617.00
2018-07-12T08:08:11.687Z,98608.00
2018-07-12T08:10:41.252Z,98609.00
2018-07-12T08:13:10.967Z,98619.00
2018-07-12T08:15:40.547Z,98605.00
2018-07-12T08:18:10.408Z,98598.00
2018-07-12T08:20:40.527Z,98594.00
2018-07-12T08:23:10.147Z,98588.00
2018-07-12T08:25:39.947Z,98591.00
2018-07-12T08:28:21.908Z,98600.00
2018-07-12T08:30:52.166Z,98602.00
2018-07-12T08:33:22.191Z,98600.00
2018-07-12T08:35:52.007Z,98596.00
2018-07-12T08:38:21.730Z,98594.00
2018-07-12T08:40:51.367Z,98598.00
2018-07-12T08:43:21.006Z,98593.00
2018-07-12T08:45:51.149Z,98588.00
2018-07-12T08:48:21.139Z,98593.00
2018-07-12T08:50:51.266Z,98588.00
2018-07-12T08:53:21.233Z,98593.00
2018-07-12T08:55:50.984Z,98586.00
2018-07-12T08:58:20.606Z,98587.00
2018-07-12T09:00:50.726Z,98585.00
2018-07-12T09:03:20.526Z,98588.00
2018-07-12T09:05:50.369Z,98574.00
2018-07-12T09:08:20.006Z,98582.00
2018-07-12T09:10:49.647Z,98575.00
2018-07-12T09:13:19.886Z,98587.00
2018-07-12T09:15:50.132Z,98575.00
2018-07-12T09:18:19.686Z,98582.00
2018-07-12T09:20:49.627Z,98587.00
2018-07-12T09:23:19.846Z,98592.00
2018-07-12T09:25:49.946Z,98581.00
2018-07-12T09:28:19.669Z,98580.00
2018-07-12T09:30:49.521Z,98590.00
2018-07-12T09:33:19.186Z,98589.00
2018-07-12T09:35:48.946Z,98588.00
2018-07-12T09:38:46.066Z,98589.00
2018-07-12T09:41:16.226Z,98596.00
2018-07-12T09:43:46.426Z,98595.00
2018-07-12T09:46:16.619Z,98599.00
2018-07-12T09:48:47.666Z,98600.00
2018-07-12T09:51:17.347Z,98594.00
2018-07-12T09:53:47.950Z,98603.00
2018-07-12T09:56:17.930Z,98596.00
2018-07-12T09:58:47.929Z,98594.00
2018-07-12T10:01:22.944Z,98603.00
2018-07-12T10:03:53.816Z,98596.00
2018-07-12T10:06:28.750Z,98600.00
2018-07-12T10:09:03.728Z,98598.00
2018-07-12T10:11:38.731Z,98594.00
2018-07-12T10:14:13.829Z,98607.00
2018-07-12T10:16:45.192Z,98606.00
2018-07-12T10:19:14.948Z,98605.00
2018-07-12T10:21:44.208Z,98610.00
2018-07-12T10:24:13.768Z,98606.00
2018-07-12T10:26:43.408Z,98608.00
2018-07-12T10:29:13.029Z,98608.00
2018-07-12T10:31:42.929Z,98614.00
2018-07-12T10:34:12.612Z,98613.00
2018-07-12T10:36:42.749Z,98602.00
2018-07-12T10:39:12.210Z,98606.00
2018-07-12T10:41:41.769Z,98608.00
2018-07-12T10:44:11.508Z,98604.00
2018-07-12T10:46:48.249Z,98603.00
2018-07-12T10:49:18.408Z,98598.00
2018-07-12T10:51:47.948Z,98592.00
2018-07-12T10:54:17.588Z,98600.00
2018-07-12T10:56:47.348Z,98600.00
2018-07-12T10:59:16.608Z,98603.00
2018-07-12T11:01:46.228Z,98603.00
2018-07-12T11:04:15.788Z,98595.00
2018-07-12T11:06:45.448Z,98592.00
2018-07-12T11:09:15.668Z,98595.00
2018-07-12T11:11:45.347Z,98594.00
2018-07-12T11:14:14.907Z,98594.00
2018-07-12T11:16:44.289Z,98592.00
2018-07-12T11:19:16.988Z,98593.00
2018-07-12T11:21:46.928Z,98584.00
2018-07-12T11:24:16.869Z,98586.00
2018-07-12T11:26:46.408Z,98584.00
2018-07-12T11:29:16.491Z,98587.00
2018-07-12T11:31:46.088Z,98580.00
2018-07-12T11:34:23.088Z,98590.00
2018-07-12T11:36:52.788Z,98580.00
2018-07-12T11:39:22.488Z,98586.00
2018-07-12T11:41:52.028Z,98588.00
2018-07-12T11:44:22.228Z,98584.00
2018-07-12T11:46:52.187Z,98576.00
2018-07-12T11:49:22.730Z,98571.00
2018-07-12T11:51:52.388Z,98574.00
2018-07-12T11:54:22.048Z,98574.00
2018-07-12T11:56:52.128Z,98562.00
2018-07-12T11:59:21.949Z,98560.00
2018-07-12T12:01:52.029Z,98568.00
2018-07-12T12:04:21.608Z,98569.00
2018-07-12T12:06:51.093Z,98558.00
2018-07-12T12:09:20.368Z,98563.00
2018-07-12T12:11:50.168Z,98563.00
2018-07-12T12:14:20.290Z,98549.00
2018-07-12T12:16:50.448Z,98557.00
2018-07-12T12:19:20.300Z,98558.00
2018-07-12T12:21:50.029Z,98559.00
2018-07-12T12:24:19.548Z,98555.00
2018-07-12T12:26:49.169Z,98557.00
2018-07-12T12:29:18.449Z,98553.00
2018-07-12T12:31:48.448Z,98560.00
2018-07-12T12:34:18.069Z,98552.00
2018-07-12T12:36:47.669Z,98562.00
2018-07-12T12:39:17.388Z,98561.00
2018-07-12T12:41:47.181Z,98553.00
2018-07-12T12:44:16.768Z,98552.00
2018-07-12T12:46:46.348Z,98558.00
2018-07-12T12:49:16.089Z,98558.00
2018-07-12T12:51:45.989Z,98550.00
2018-07-12T12:54:15.651Z,98556.00
2018-07-12T12:56:45.328Z,98543.00
2018-07-12T12:59:14.868Z,98552.00
2018-07-12T13:01:44.625Z,98543.00
2018-07-12T13:04:14.231Z,98547.00
2018-07-12T13:06:43.672Z,98545.00
2018-07-12T13:09:13.471Z,98543.00
2018-07-12T13:11:43.011Z,98545.00
2018-07-12T13:14:12.611Z,98540.00
2018-07-12T13:16:42.265Z,98530.00
2018-07-12T13:19:11.906Z,98536.00
2018-07-12T13:21:41.445Z,98544.00
2018-07-12T13:24:10.946Z,98545.00
2018-07-12T13:26:40.485Z,98541.00
2018-07-12T13:29:10.746Z,98538.00
2018-07-12T13:31:40.137Z,98539.00
2018-07-12T13:34:10.466Z,98542.00
2018-07-12T13:36:40.367Z,98536.00
2018-07-12T13:39:10.287Z,98539.00
2018-07-12T13:41:39.694Z,98531.00
2018-07-12T13:44:21.240Z,98529.00
2018-07-12T13:46:52.217Z,98538.00
2018-07-12T13:49:21.886Z,98530.00
2018-07-12T13:51:52.387Z,98530.00
2018-07-12T13:54:21.663Z,98535.00
2018-07-12T13:56:51.219Z,98545.00
2018-07-12T13:59:20.714Z,98537.00
2018-07-12T14:01:50.287Z,98542.00
2018-07-12T14:04:19.756Z,98530.00
2018-07-12T14:06:49.074Z,98537.00
2018-07-12T14:09:18.726Z,98527.00
2018-07-12T14:11:48.032Z,98529.00
2018-07-12T14:14:17.269Z,98520.00
2018-07-12T14:16:46.867Z,98525.00
2018-07-12T14:19:16.344Z,98514.00
2018-07-12T14:21:45.975Z,98521.00
2018-07-12T14:24:16.155Z,98528.00
2018-07-12T14:26:45.982Z,98520.00
2018-07-12T14:29:15.234Z,98531.00
2018-07-12T14:31:45.189Z,98522.00
2018-07-12T14:34:14.848Z,98519.00
2018-07-12T14:36:44.548Z,98517.00
2018-07-12T14:39:14.328Z,98522.00
2018-07-12T14:41:43.688Z,98529.00
2018-07-12T14:44:13.218Z,98525.00
2018-07-12T14:46:42.577Z,98520.00
2018-07-12T14:49:12.377Z,98516.00
2018-07-12T14:51:42.357Z,98522.00
2018-07-12T14:54:12.357Z,98522.00
2018-07-12T14:56:42.437Z,98512.00
2018-07-12T14:59:12.058Z,98512.00
2018-07-12T15:01:41.919Z,98510.00
2018-07-12T15:04:11.977Z,98518.00
2018-07-12T15:06:42.117Z,98509.00
2018-07-12T15:09:12.167Z,98515.00
2018-07-12T15:11:42.240Z,98516.00
2018-07-12T15:14:12.017Z,98515.00
2018-07-12T15:16:41.688Z,98508.00
2018-07-12T15:19:11.703Z,98514.00
2018-07-12T15:21:41.017Z,98514.00
2018-07-12T15:24:10.877Z,98511.00
2018-07-12T15:26:40.463Z,98515.00
2018-07-12T15:29:10.619Z,98508.00
2018-07-12T15:31:40.777Z,98503.00
2018-07-12T15:34:10.598Z,98509.00
2018-07-12T15:36:40.320Z,98509.00
2018-07-12T15:39:09.878Z,98505.00
2018-07-12T15:41:40.075Z,98502.00
2018-07-12T15:44:09.656Z,98510.00
2018-07-12T15:46:39.378Z,98505.00
2018-07-12T15:49:08.858Z,98506.00
2018-07-12T15:51:38.553Z,98503.00
2018-07-12T15:54:08.058Z,98506.00
2018-07-12T15:56:37.781Z,98506.00
2018-07-12T15:59:07.517Z,98509.00
2018-07-12T16:01:37.591Z,98514.00
2018-07-12T16:04:07.371Z,98504.00
2018-07-12T16:06:37.231Z,98501.00
2018-07-12T16:09:09.939Z,98510.00
2018-07-12T16:11:40.195Z,98513.00
2018-07-12T16:14:10.051Z,98513.00
2018-07-12T16:16:39.655Z,98509.00
2018-07-12T16:19:09.275Z,98507.00
2018-07-12T16:21:38.901Z,98513.00
2018-07-12T16:24:08.898Z,98510.00
2018-07-12T16:26:38.887Z,98512.00
2018-07-12T16:29:09.067Z,98508.00
2018-07-12T16:31:38.857Z,98518.00
2018-07-12T16:34:08.548Z,98516.00
2018-07-12T16:36:38.175Z,98509.00
2018-07-12T16:39:08.556Z,98520.00
2018-07-12T16:41:38.217Z,98510.00
2018-07-12T16:44:07.758Z,98518.00
2018-07-12T16:46:37.438Z,98516.00
2018-07-12T16:49:07.518Z,98516.00
2018-07-12T16:51:37.218Z,98512.00
2018-07-12T16:54:07.217Z,98513.00
2018-07-12T16:56:36.838Z,98521.00
2018-07-12T16:59:07.098Z,98522.00
2018-07-12T17:01:36.738Z,98522.00
2018-07-12T17:04:06.538Z,98521.00
2018-07-12T17:06:36.579Z,98521.00
2018-07-12T17:09:08.678Z,98524.00
2018-07-12T17:11:38.261Z,98521.00
2018-07-12T17:14:07.917Z,98521.00
2018-07-12T17:16:37.482Z,98526.00
2018-07-12T17:19:07.141Z,98531.00
2018-07-12T17:21:36.805Z,98534.00
2018-07-12T17:24:06.442Z,98530.00
2018-07-12T17:26:36.155Z,98542.00
2018-07-12T17:29:06.171Z,98544.00
2018-07-12T17:31:36.142Z,98541.00
2018-07-12T17:34:06.080Z,98546.00
2018-07-12T17:36:36.082Z,98543.00
2018-07-12T17:39:07.361Z,98548.00
2018-07-12T17:41:37.102Z,98546.00
2018-07-12T17:44:06.801Z,98546.00
2018-07-12T17:46:36.502Z,98553.00
2018-07-12T17:49:06.061Z,98555.00
2018-07-12T17:51:35.893Z,98555.00
2018-07-12T17:54:05.549Z,98557.00
2018-07-12T17:56:35.232Z,98565.00
2018-07-12T17:59:05.026Z,98565.00
2018-07-12T18:01:34.711Z,98560.00
2018-07-12T18:04:04.168Z,98567.00
2018-07-12T18:06:33.832Z,98570.00
2018-07-12T18:09:04.511Z,98572.00
2018-07-12T18:11:34.212Z,98576.00
2018-07-12T18:14:03.911Z,98567.00
2018-07-12T18:16:33.552Z,98574.00
2018-07-12T18:19:03.715Z,98571.00
2018-07-12T18:21:33.832Z,98577.00
2018-07-12T18:24:03.412Z,98585.00
2018-07-12T18:26:33.044Z,98587.00
2018-07-12T18:29:03.472Z,98580.00
2018-07-12T18:31:35.111Z,98584.00
2018-07-12T18:34:04.372Z,98584.00
2018-07-12T18:36:34.012Z,98593.00
2018-07-12T18:39:04.672Z,98592.00
2018-07-12T18:41:34.692Z,98587.00
2018-07-12T18:44:05.171Z,98594.00
2018-07-12T18:46:35.214Z,98599.00
2018-07-12T18:49:04.870Z,98603.00
2018-07-12T18:51:34.490Z,98608.00
2018-07-12T18:54:04.200Z,98615.00
2018-07-12T18:56:33.860Z,98608.00
2018-07-12T18:59:03.585Z,98612.00
2018-07-12T19:01:33.317Z,98610.00
2018-07-12T19:04:03.440Z,98615.00
2018-07-12T19:06:33.154Z,98619.00
2018-07-12T19:09:03.112Z,98616.00
2018-07-12T19:11:32.812Z,98622.00
2018-07-12T19:14:02.172Z,98628.00
2018-07-12T19:16:31.692Z,98630.00
2018-07-12T19:19:01.414Z,98629.00
2018-07-12T19:21:31.035Z,98637.00
2018-07-12T19:24:00.792Z,98639.00
2018-07-12T19:26:30.334Z,98642.00
2018-07-12T19:28:59.972Z,98649.00
2018-07-12T19:31:29.671Z,98650.00
2018-07-12T19:33:58.972Z,98650.00
2018-07-12T19:36:28.872Z,98651.00
2018-07-12T19:38:58.373Z,98657.00
2018-07-12T19:41:27.853Z,98657.00
2018-07-12T19:43:57.533Z,98663.00
2018-07-12T19:46:27.596Z,98665.00
2018-07-12T19:48:57.351Z,98670.00
2018-07-12T19:51:26.992Z,98676.00
2018-07-12T19:53:56.731Z,98675.00
2018-07-12T19:56:26.831Z,98680.00
2018-07-12T19:58:56.451Z,98675.00
2018-07-12T20:01:28.892Z,98683.00
2018-07-12T20:03:58.684Z,98672.00
2018-07-12T20:06:28.271Z,98678.00
2018-07-12T20:08:57.831Z,98681.00
2018-07-12T20:11:27.531Z,98682.00
2018-07-12T20:13:57.107Z,98686.00
2018-07-12T20:16:26.772Z,98680.00
2018-07-12T20:18:56.432Z,98685.00
2018-07-12T20:21:26.391Z,98693.00
2018-07-12T20:23:55.928Z,98686.00
2018-07-12T20:26:25.704Z,98687.00
2018-07-12T20:28:55.234Z,98690.00
2018-07-12T20:31:24.972Z,98688.00
2018-07-12T20:33:54.591Z,98684.00
2018-07-12T20:36:24.172Z,98686.00
2018-07-12T20:38:53.811Z,98686.00
2018-07-12T20:41:23.451Z,98692.00
2018-07-12T20:43:53.192Z,98696.00
2018-07-12T20:46:22.792Z,98691.00
2018-07-12T20:48:52.471Z,98691.00
2018-07-12T20:51:22.063Z,98694.00
2018-07-12T20:53:51.713Z,98686.00
2018-07-12T20:56:21.563Z,98693.00
2018-07-12T20:58:51.402Z,98697.00
2018-07-12T21:01:21.323Z,98705.00
2018-07-12T21:03:51.263Z,98705.00
2018-07-12T21:06:21.167Z,98705.00
2018-07-12T21:08:50.946Z,98701.00
2018-07-12T21:11:20.606Z,98701.00
2018-07-12T21:13:50.266Z,98704.00
2018-07-12T21:16:19.906Z,98707.00
2018-07-12T21:18:49.548Z,98700.00
2018-07-12T21:21:19.570Z,98705.00
2018-07-12T21:23:49.285Z,98705.00
2018-07-12T21:26:19.270Z,98703.00
2018-07-12T21:28:49.787Z,98698.00
2018-07-12T21:31:19.506Z,98702.00
2018-07-12T21:33:49.267Z,98697.00
2018-07-12T21:36:19.126Z,98702.00
2018-07-12T21:38:48.907Z,98691.00
2018-07-12T21:41:18.627Z,98695.00
2018-07-12T21:43:48.807Z,98702.00
2018-07-12T21:46:18.468Z,98694.00
2018-07-12T21:48:48.028Z,98696.00
2018-07-12T21:51:17.534Z,98693.00
2018-07-12T21:53:47.627Z,98690.00
2018-07-12T21:56:17.326Z,98699.00
2018-07-12T21:58:46.566Z,98697.00
2018-07-12T22:01:16.253Z,98694.00
2018-07-12T22:03:45.952Z,98705.00
2018-07-12T22:06:17.972Z,98705.00
2018-07-12T22:08:47.859Z,98701.00
2018-07-12T22:11:17.410Z,98712.00
2018-07-12T22:13:46.945Z,98704.00
2018-07-12T22:16:16.791Z,98708.00
2018-07-12T22:18:46.729Z,98713.00
2018-07-12T22:21:16.431Z,98719.00
2018-07-12T22:23:46.169Z,98721.00
2018-07-12T22:26:15.749Z,98719.00
2018-07-12T22:28:45.409Z,98723.00
2018-07-12T22:31:15.009Z,98722.00
2018-07-12T22:33:44.429Z,98724.00
2018-07-12T22:36:14.690Z,98724.00
2018-07-12T22:38:44.269Z,98726.00
2018-07-12T22:41:13.988Z,98725.00
2018-07-12T22:43:43.508Z,98733.00
2018-07-12T22:46:13.348Z,98733.00
2018-07-12T22:48:43.667Z,98735.00
2018-07-12T22:51:13.028Z,98735.00
2018-07-12T22:53:42.708Z,98741.00
2018-07-12T22:56:12.268Z,98738.00
2018-07-12T22:58:42.967Z,98739.00
2018-07-12T23:01:12.549Z,98739.00
2018-07-12T23:03:42.387Z,98737.00
2018-07-12T23:06:12.008Z,98732.00
2018-07-12T23:08:41.853Z,98737.00
2018-07-12T23:11:11.472Z,98727.00
2018-07-12T23:13:41.908Z,98731.00
2018-07-12T23:16:11.134Z,98732.00
2018-07-12T23:18:40.667Z,98730.00
2018-07-12T23:21:10.428Z,98739.00
2018-07-12T23:23:40.448Z,98739.00
2018-07-12T23:26:10.108Z,98739.00
2018-07-12T23:28:39.711Z,98740.00
2018-07-12T23:31:09.328Z,98735.00
2018-07-12T23:33:39.028Z,98736.00
2018-07-12T23:36:08.628Z,98736.00
2018-07-12T23:38:38.269Z,98740.00
2018-07-12T23:41:07.948Z,98739.00
2018-07-12T23:43:37.570Z,98739.00
2018-07-12T23:46:07.188Z,98738.00
2018-07-12T23:48:36.728Z,98735.00
2018-07-12T23:51:06.468Z,98738.00
2018-07-12T23:53:36.188Z,98746.00
2018-07-12T23:56:05.907Z,98745.00
2018-07-12T23:58:36.088Z,98753.00
